createdAt,value
2023-02-17T00:01:34.165Z,75.87
2023-02-17T00:04:02.210Z,77.76
2023-02-17T00:06:31.643Z,82.28
2023-02-17T00:08:59.577Z,80.49
2023-02-17T00:11:28.364Z,78.75
2023-02-17T00:13:56.736Z,82.00
2023-02-17T00:16:27.497Z,82.67
2023-02-17T00:18:57.381Z,82.16
2023-02-17T00:21:28.007Z,84.11
2023-02-17T00:23:55.729Z,84.62
2023-02-17T00:26:23.198Z,83.57
2023-02-17T00:28:51.063Z,82.41
2023-02-17T00:31:21.865Z,81.06
2023-02-17T00:33:50.918Z,80.37
2023-02-17T00:36:20.264Z,80.94
2023-02-17T00:38:49.148Z,81.39
2023-02-17T00:41:16.697Z,81.33
2023-02-17T00:43:44.187Z,80.72
2023-02-17T00:46:11.846Z,80.69
2023-02-17T00:48:39.465Z,80.98
2023-02-17T00:51:08.872Z,81.73
2023-02-17T00:53:36.748Z,81.13
2023-02-17T00:56:05.344Z,81.14
2023-02-17T00:58:32.952Z,82.23
2023-02-17T01:01:00.450Z,82.05
2023-02-17T01:03:28.815Z,80.66
2023-02-17T01:05:57.383Z,81.20
2023-02-17T01:08:26.776Z,81.09
2023-02-17T01:10:54.334Z,80.52
2023-02-17T01:13:22.331Z,81.55
2023-02-17T01:15:51.386Z,82.87
2023-02-17T01:18:24.216Z,83.02
2023-02-17T01:20:52.247Z,81.96
2023-02-17T01:23:19.738Z,81.92
2023-02-17T01:25:50.563Z,80.82
2023-02-17T01:28:20.701Z,80.25
2023-02-17T01:30:48.294Z,80.39
2023-02-17T01:33:16.326Z,80.88
2023-02-17T01:35:43.806Z,80.66
2023-02-17T01:38:11.298Z,80.64
2023-02-17T01:40:38.772Z,82.91
2023-02-17T01:43:15.770Z,83.57
2023-02-17T01:45:47.915Z,81.54
2023-02-17T01:48:19.231Z,81.07
2023-02-17T01:50:50.341Z,80.85
2023-02-17T01:53:22.909Z,79.57
2023-02-17T01:55:50.882Z,81.51
2023-02-17T01:58:24.225Z,82.43
2023-02-17T02:00:53.657Z,82.13
2023-02-17T02:03:21.724Z,81.55
2023-02-17T02:05:49.219Z,82.38
2023-02-17T02:08:17.146Z,83.01
2023-02-17T02:10:44.627Z,82.40
2023-02-17T02:13:12.326Z,82.12
2023-02-17T02:15:48.901Z,82.09
2023-02-17T02:18:31.276Z,82.46
2023-02-17T02:21:34.824Z,83.54
2023-02-17T02:24:11.506Z,84.05
2023-02-17T02:27:17.172Z,84.70
2023-02-17T02:30:02.248Z,85.21
2023-02-17T02:32:47.753Z,88.51
2023-02-17T02:35:21.813Z,87.22
2023-02-17T02:37:54.155Z,87.41
2023-02-17T02:40:25.277Z,85.66
2023-02-17T02:42:52.993Z,87.46
2023-02-17T02:45:20.848Z,86.40
2023-02-17T02:47:51.801Z,87.39
2023-02-17T02:50:22.899Z,86.38
2023-02-17T02:53:05.723Z,86.11
2023-02-17T02:55:45.226Z,86.09
2023-02-17T02:58:19.728Z,88.48
2023-02-17T03:00:55.240Z,86.67
2023-02-17T03:03:30.333Z,86.50
2023-02-17T03:06:03.960Z,86.42
2023-02-17T03:08:37.591Z,86.35
2023-02-17T03:11:05.543Z,86.11
2023-02-17T03:13:34.401Z,86.92
2023-02-17T03:16:01.924Z,87.37
2023-02-17T03:18:32.950Z,87.35
2023-02-17T03:21:07.284Z,88.78
2023-02-17T03:23:34.736Z,87.40
2023-02-17T03:26:02.160Z,88.19
2023-02-17T03:28:29.581Z,90.13
2023-02-17T03:30:57.105Z,88.85
2023-02-17T03:33:24.509Z,89.45
2023-02-17T03:35:53.388Z,92.59
2023-02-17T03:38:20.805Z,91.16
2023-02-17T03:40:48.287Z,89.19
2023-02-17T03:43:18.102Z,87.56
2023-02-17T03:45:45.680Z,86.87
2023-02-17T03:48:13.145Z,88.90
2023-02-17T03:50:40.597Z,89.53
2023-02-17T03:53:09.378Z,89.35
2023-02-17T03:55:36.813Z,87.39
2023-02-17T03:58:04.796Z,89.58
2023-02-17T04:00:32.319Z,89.52
2023-02-17T04:03:00.036Z,88.09
2023-02-17T04:05:27.514Z,91.12
2023-02-17T04:07:54.942Z,91.06
2023-02-17T04:10:23.726Z,92.26
2023-02-17T04:12:51.151Z,89.92
2023-02-17T04:15:18.583Z,92.52
2023-02-17T04:17:45.976Z,93.29
2023-02-17T04:20:14.125Z,93.99
2023-02-17T04:22:41.630Z,96.48
2023-02-17T04:25:09.329Z,97.06
2023-02-17T04:27:38.054Z,96.84
2023-02-17T04:30:07.124Z,93.47
2023-02-17T04:32:34.571Z,91.94
2023-02-17T04:35:02.015Z,90.02
2023-02-17T04:37:29.434Z,91.41
2023-02-17T04:39:56.888Z,91.77
2023-02-17T04:42:24.401Z,91.38
2023-02-17T04:44:53.178Z,91.58
2023-02-17T04:47:20.645Z,95.12
2023-02-17T04:49:48.089Z,94.77
2023-02-17T04:52:15.525Z,94.60
2023-02-17T04:54:42.924Z,93.69
2023-02-17T04:57:10.402Z,95.02
2023-02-17T04:59:38.045Z,95.11
2023-02-17T05:02:06.906Z,93.07
2023-02-17T05:04:34.604Z,92.13
2023-02-17T05:07:02.105Z,95.40
2023-02-17T05:09:29.747Z,100.00
2023-02-17T05:11:57.390Z,99.06
2023-02-17T05:14:24.845Z,96.26
2023-02-17T05:16:52.294Z,96.33
2023-02-17T05:19:21.060Z,92.23
2023-02-17T05:21:48.628Z,93.74
2023-02-17T05:24:16.111Z,92.51
2023-02-17T05:26:43.820Z,92.83
2023-02-17T05:29:11.329Z,92.49
2023-02-17T05:31:38.976Z,93.33
2023-02-17T05:34:06.489Z,92.04
2023-02-17T05:36:35.255Z,90.95
2023-02-17T05:39:02.701Z,90.95
2023-02-17T05:41:30.269Z,90.67
2023-02-17T05:43:57.713Z,90.83
2023-02-17T05:46:25.224Z,91.22
2023-02-17T05:48:52.697Z,91.54
2023-02-17T05:51:20.205Z,91.22
2023-02-17T05:53:48.982Z,91.14
2023-02-17T05:56:16.461Z,91.25
2023-02-17T05:58:43.861Z,89.82
2023-02-17T06:01:12.318Z,92.87
2023-02-17T06:03:39.780Z,92.00
2023-02-17T06:06:08.462Z,90.80
2023-02-17T06:08:37.044Z,90.70
2023-02-17T06:11:06.236Z,91.32
2023-02-17T06:13:33.892Z,91.44
2023-02-17T06:16:01.513Z,89.85
2023-02-17T06:18:29.184Z,91.22
2023-02-17T06:20:57.278Z,90.19
2023-02-17T06:23:25.071Z,88.62
2023-02-17T06:25:52.568Z,90.55
2023-02-17T06:28:21.496Z,89.64
2023-02-17T06:30:49.036Z,89.92
2023-02-17T06:33:16.484Z,92.75
2023-02-17T06:35:44.826Z,90.21
2023-02-17T06:38:12.415Z,89.85
2023-02-17T06:40:39.848Z,89.65
2023-02-17T06:43:07.692Z,88.86
2023-02-17T06:45:36.577Z,89.10
2023-02-17T06:48:04.075Z,90.18
2023-02-17T06:50:31.491Z,89.27
2023-02-17T06:52:59.004Z,89.76
2023-02-17T06:55:26.455Z,90.54
2023-02-17T06:57:53.881Z,88.64
2023-02-17T07:00:22.816Z,89.49
2023-02-17T07:02:51.740Z,90.96
2023-02-17T07:05:19.483Z,89.16
2023-02-17T07:07:46.969Z,91.33
2023-02-17T07:10:14.470Z,88.71
2023-02-17T07:12:41.932Z,88.59
2023-02-17T07:15:12.402Z,87.83
2023-02-17T07:17:40.060Z,90.17
2023-02-17T07:20:10.316Z,88.96
2023-02-17T07:22:37.753Z,88.17
2023-02-17T07:25:05.851Z,90.70
2023-02-17T07:27:33.492Z,90.02
2023-02-17T07:30:01.024Z,91.18
2023-02-17T07:32:28.619Z,90.49
2023-02-17T07:34:56.238Z,88.25
2023-02-17T07:37:25.107Z,87.12
2023-02-17T07:39:53.001Z,88.72
2023-02-17T07:42:20.429Z,88.29
2023-02-17T07:44:47.868Z,89.97
2023-02-17T07:47:15.300Z,88.92
2023-02-17T07:49:42.709Z,87.37
2023-02-17T07:52:10.153Z,89.36
2023-02-17T07:54:39.305Z,88.57
2023-02-17T07:57:06.739Z,90.13
2023-02-17T07:59:34.130Z,91.65
2023-02-17T08:02:01.605Z,88.42
2023-02-17T08:04:29.106Z,88.49
2023-02-17T08:06:56.660Z,92.26
2023-02-17T08:09:41.508Z,91.09
2023-02-17T08:12:34.038Z,88.17
2023-02-17T08:15:01.854Z,90.59
2023-02-17T08:17:29.608Z,92.72
2023-02-17T08:19:57.417Z,91.67
2023-02-17T08:22:25.230Z,90.19
2023-02-17T08:24:52.812Z,90.48
2023-02-17T08:27:22.274Z,91.29
2023-02-17T08:29:50.024Z,91.02
2023-02-17T08:32:18.629Z,88.87
2023-02-17T08:34:46.171Z,92.97
2023-02-17T08:37:13.744Z,91.54
2023-02-17T08:39:41.334Z,92.16
2023-02-17T08:42:08.772Z,90.80
2023-02-17T08:44:37.966Z,90.75
2023-02-17T08:47:06.777Z,92.63
2023-02-17T08:49:34.990Z,91.94
2023-02-17T08:52:03.093Z,93.05
2023-02-17T08:54:30.846Z,93.14
2023-02-17T08:56:58.631Z,95.80
2023-02-17T08:59:26.152Z,95.22
2023-02-17T09:01:55.733Z,94.65
2023-02-17T09:04:23.231Z,92.45
2023-02-17T09:06:52.709Z,92.23
2023-02-17T09:09:22.722Z,91.20
2023-02-17T09:11:50.594Z,93.42
2023-02-17T09:14:18.195Z,92.64
2023-02-17T09:16:45.753Z,92.40
2023-02-17T09:19:14.602Z,91.98
2023-02-17T09:21:42.143Z,92.02
2023-02-17T09:24:09.683Z,90.38
2023-02-17T09:26:37.257Z,94.48
2023-02-17T09:29:05.057Z,93.75
2023-02-17T09:31:32.696Z,95.18
2023-02-17T09:34:00.287Z,94.10
2023-02-17T09:36:31.790Z,90.86
2023-02-17T09:38:59.895Z,92.27
2023-02-17T09:41:42.294Z,93.33
2023-02-17T09:44:20.498Z,93.44
2023-02-17T09:47:01.738Z,91.94
2023-02-17T09:49:34.770Z,92.80
2023-02-17T09:52:09.354Z,93.19
2023-02-17T09:54:42.225Z,92.30
2023-02-17T09:57:15.907Z,91.98
2023-02-17T09:59:47.542Z,91.76
2023-02-17T10:02:21.033Z,93.73
2023-02-17T10:04:50.710Z,93.70
2023-02-17T10:07:25.535Z,95.24
2023-02-17T10:09:59.332Z,93.56
2023-02-17T10:12:30.794Z,92.52
2023-02-17T10:15:01.404Z,94.50
2023-02-17T10:17:36.041Z,93.58
2023-02-17T10:20:06.441Z,94.33
2023-02-17T10:22:35.783Z,93.77
2023-02-17T10:25:14.240Z,93.02
2023-02-17T10:27:44.537Z,92.48
2023-02-17T10:30:28.554Z,94.62
2023-02-17T10:33:02.019Z,92.74
2023-02-17T10:35:45.692Z,94.03
2023-02-17T10:38:33.074Z,93.79
2023-02-17T10:41:04.194Z,94.60
2023-02-17T10:43:33.990Z,94.50
2023-02-17T10:46:04.402Z,96.95
2023-02-17T10:48:36.934Z,94.51
2023-02-17T10:51:04.593Z,93.83
2023-02-17T10:53:35.526Z,94.26
2023-02-17T10:56:08.805Z,94.38
2023-02-17T10:58:42.046Z,97.15
2023-02-17T11:01:09.730Z,96.49
2023-02-17T11:03:38.389Z,98.38
2023-02-17T11:06:15.598Z,96.34
2023-02-17T11:08:50.787Z,90.93
2023-02-17T11:11:21.573Z,91.27
2023-02-17T11:14:03.284Z,95.50
2023-02-17T11:16:37.253Z,95.41
2023-02-17T11:19:06.076Z,93.67
2023-02-17T11:21:34.536Z,90.96
2023-02-17T11:24:05.789Z,91.54
2023-02-17T11:26:36.291Z,91.20
2023-02-17T11:29:18.323Z,92.22
2023-02-17T11:31:55.461Z,93.39
2023-02-17T11:34:26.678Z,94.23
2023-02-17T11:37:02.635Z,92.06
2023-02-17T11:39:31.583Z,96.94
2023-02-17T11:41:59.059Z,93.08
2023-02-17T11:44:27.788Z,91.40
2023-02-17T11:47:09.328Z,93.93
2023-02-17T11:49:48.052Z,94.01
2023-02-17T11:52:36.024Z,88.71
2023-02-17T11:55:18.981Z,86.48
2023-02-17T11:57:58.478Z,86.76
2023-02-17T12:00:33.430Z,85.18
2023-02-17T12:03:22.196Z,84.54
2023-02-17T12:06:02.457Z,81.90
2023-02-17T12:08:39.366Z,81.92
2023-02-17T12:11:18.590Z,85.34
2023-02-17T12:14:01.268Z,84.98
2023-02-17T12:16:43.234Z,85.51
2023-02-17T12:19:29.921Z,84.03
2023-02-17T12:22:08.856Z,89.43
2023-02-17T12:24:48.125Z,85.50
2023-02-17T12:27:29.206Z,86.13
2023-02-17T12:30:08.193Z,86.76
2023-02-17T12:32:49.057Z,85.45
2023-02-17T12:35:22.554Z,87.22
2023-02-17T12:37:54.537Z,89.01
2023-02-17T12:40:33.248Z,90.29
2023-02-17T12:43:07.853Z,89.02
2023-02-17T12:45:40.412Z,87.69
2023-02-17T12:48:16.677Z,85.96
2023-02-17T12:50:54.698Z,88.71
2023-02-17T12:53:27.802Z,88.81
2023-02-17T12:55:58.734Z,88.21
2023-02-17T12:58:29.468Z,89.50
2023-02-17T13:01:06.163Z,87.47
2023-02-17T13:03:36.545Z,88.34
2023-02-17T13:06:18.803Z,87.15
2023-02-17T13:08:51.357Z,88.26
2023-02-17T13:11:28.426Z,88.72
2023-02-17T13:13:57.652Z,88.45
2023-02-17T13:16:25.314Z,87.65
2023-02-17T13:18:53.398Z,86.83
2023-02-17T13:21:29.644Z,85.55
2023-02-17T13:24:02.677Z,88.31
2023-02-17T13:26:32.686Z,89.78
2023-02-17T13:29:19.974Z,89.20
2023-02-17T13:31:51.482Z,89.78
2023-02-17T13:34:31.689Z,90.03
2023-02-17T13:37:02.978Z,89.53
2023-02-17T13:39:34.094Z,87.88
2023-02-17T13:42:03.019Z,88.20
2023-02-17T13:44:33.656Z,88.81
2023-02-17T13:47:04.477Z,88.77
2023-02-17T13:49:35.133Z,88.94
2023-02-17T13:52:11.264Z,91.09
2023-02-17T13:54:38.730Z,90.00
2023-02-17T13:57:06.171Z,90.16
2023-02-17T13:59:37.282Z,90.35
2023-02-17T14:02:05.153Z,90.05
2023-02-17T14:04:33.008Z,90.31
2023-02-17T14:07:04.074Z,89.98
2023-02-17T14:09:33.810Z,89.84
2023-02-17T14:12:03.942Z,90.16
2023-02-17T14:14:34.177Z,93.11
2023-02-17T14:17:06.359Z,93.62
2023-02-17T14:19:44.059Z,93.35
2023-02-17T14:22:25.878Z,93.40
2023-02-17T14:25:01.007Z,94.67
2023-02-17T14:27:28.542Z,92.80
2023-02-17T14:29:56.008Z,92.51
2023-02-17T14:32:33.687Z,93.17
2023-02-17T14:35:09.902Z,91.44
2023-02-17T14:37:37.416Z,92.94
2023-02-17T14:40:05.884Z,94.39
2023-02-17T14:42:33.298Z,94.41
2023-02-17T14:45:00.735Z,92.88
2023-02-17T14:47:28.131Z,93.91
2023-02-17T14:49:56.946Z,96.54
2023-02-17T14:52:26.414Z,99.84
2023-02-17T14:54:53.866Z,100.00
2023-02-17T14:57:26.239Z,100.00
2023-02-17T14:59:57.417Z,100.00
2023-02-17T15:02:25.437Z,100.00
2023-02-17T15:04:52.863Z,100.00
2023-02-17T15:07:21.944Z,99.48
2023-02-17T15:09:50.176Z,100.00
2023-02-17T15:12:19.379Z,100.00
2023-02-17T15:14:47.530Z,100.00
2023-02-17T15:17:15.701Z,100.00
2023-02-17T15:19:44.783Z,100.00
2023-02-17T15:22:13.620Z,100.00
2023-02-17T15:24:42.462Z,100.00
2023-02-17T15:27:14.858Z,100.00
2023-02-17T15:29:42.487Z,100.00
2023-02-17T15:32:17.993Z,100.00
2023-02-17T15:34:46.548Z,100.00
2023-02-17T15:37:14.003Z,100.00
2023-02-17T15:39:42.764Z,100.00
2023-02-17T15:42:14.358Z,100.00
2023-02-17T15:44:45.001Z,100.00
2023-02-17T15:47:16.408Z,100.00
2023-02-17T15:49:44.049Z,100.00
2023-02-17T15:52:13.125Z,100.00
2023-02-17T15:54:41.145Z,100.00
2023-02-17T15:57:20.512Z,100.00
2023-02-17T15:59:48.175Z,100.00
2023-02-17T16:02:21.113Z,100.00
2023-02-17T16:04:48.838Z,100.00
2023-02-17T16:07:16.461Z,100.00
2023-02-17T16:09:43.972Z,100.00
2023-02-17T16:12:18.426Z,100.00
2023-02-17T16:14:46.200Z,100.00
2023-02-17T16:17:15.781Z,100.00
2023-02-17T16:19:43.585Z,100.00
2023-02-17T16:22:11.221Z,100.00
2023-02-17T16:24:38.763Z,100.00
2023-02-17T16:27:08.282Z,100.00
2023-02-17T16:29:37.188Z,100.00
2023-02-17T16:32:05.393Z,100.00
2023-02-17T16:34:35.529Z,100.00
2023-02-17T16:37:10.907Z,99.88
2023-02-17T16:39:40.199Z,99.63
2023-02-17T16:42:07.678Z,98.69
2023-02-17T16:44:37.502Z,96.96
2023-02-17T16:47:07.381Z,95.79
2023-02-17T16:49:40.649Z,95.12
2023-02-17T16:52:22.963Z,94.48
2023-02-17T16:54:50.486Z,95.09
2023-02-17T16:57:19.793Z,94.12
2023-02-17T16:59:48.755Z,95.49
2023-02-17T17:02:16.239Z,94.37
2023-02-17T17:04:43.674Z,95.84
2023-02-17T17:07:14.305Z,94.79
2023-02-17T17:09:43.036Z,95.25
2023-02-17T17:12:12.554Z,95.66
2023-02-17T17:14:40.012Z,96.10
2023-02-17T17:17:11.063Z,94.33
2023-02-17T17:19:38.517Z,94.30
2023-02-17T17:22:05.963Z,95.47
2023-02-17T17:24:33.420Z,93.13
2023-02-17T17:27:00.826Z,94.23
2023-02-17T17:29:28.234Z,92.22
2023-02-17T17:31:55.741Z,94.03
2023-02-17T17:34:24.557Z,94.83
2023-02-17T17:36:52.093Z,95.16
2023-02-17T17:39:21.156Z,94.52
2023-02-17T17:41:49.109Z,91.59
2023-02-17T17:44:17.270Z,92.72
2023-02-17T17:46:45.137Z,92.65
2023-02-17T17:49:13.961Z,92.10
2023-02-17T17:51:42.922Z,92.26
2023-02-17T17:54:10.667Z,90.25
2023-02-17T17:56:40.002Z,91.19
2023-02-17T17:59:07.911Z,94.93
2023-02-17T18:01:35.797Z,95.16
2023-02-17T18:04:04.442Z,99.51
2023-02-17T18:06:36.088Z,100.00
2023-02-17T18:09:07.621Z,100.00
2023-02-17T18:11:37.328Z,100.00
2023-02-17T18:14:11.109Z,99.87
2023-02-17T18:16:39.696Z,93.43
2023-02-17T18:19:09.325Z,93.15
2023-02-17T18:21:36.763Z,91.46
2023-02-17T18:24:05.765Z,91.94
2023-02-17T18:26:33.677Z,88.72
2023-02-17T18:29:01.366Z,88.79
2023-02-17T18:31:29.753Z,88.94
2023-02-17T18:33:57.391Z,89.25
2023-02-17T18:36:27.553Z,88.27
2023-02-17T18:38:55.500Z,88.65
2023-02-17T18:41:26.723Z,89.35
2023-02-17T18:43:55.307Z,87.69
2023-02-17T18:46:25.179Z,88.16
2023-02-17T18:48:54.202Z,87.64
2023-02-17T18:51:23.400Z,85.51
2023-02-17T18:53:51.450Z,86.29
2023-02-17T18:56:22.443Z,85.79
2023-02-17T18:58:52.667Z,84.06
2023-02-17T19:01:22.788Z,83.01
2023-02-17T19:03:50.530Z,80.73
2023-02-17T19:06:20.211Z,78.60
2023-02-17T19:08:48.730Z,73.98
2023-02-17T19:11:18.166Z,72.33
2023-02-17T19:13:45.825Z,72.93
2023-02-17T19:16:17.080Z,72.08
2023-02-17T19:18:45.802Z,72.14
2023-02-17T19:21:14.029Z,72.54
2023-02-17T19:23:42.275Z,71.06
2023-02-17T19:26:11.329Z,70.86
2023-02-17T19:28:40.048Z,71.74
2023-02-17T19:31:08.629Z,72.26
2023-02-17T19:33:38.030Z,71.45
2023-02-17T19:36:09.941Z,70.49
2023-02-17T19:38:37.950Z,70.71
2023-02-17T19:41:08.058Z,71.22
2023-02-17T19:43:35.604Z,71.15
2023-02-17T19:46:03.607Z,69.91
2023-02-17T19:48:31.116Z,70.62
2023-02-17T19:51:02.065Z,70.19
2023-02-17T19:53:30.842Z,70.52
2023-02-17T19:56:10.464Z,70.27
2023-02-17T19:58:39.434Z,70.43
2023-02-17T20:01:08.381Z,70.13
2023-02-17T20:03:36.073Z,70.14
2023-02-17T20:06:07.324Z,69.96
2023-02-17T20:08:35.186Z,70.40
2023-02-17T20:11:07.690Z,70.65
2023-02-17T20:13:45.198Z,71.51
2023-02-17T20:16:15.476Z,72.92
2023-02-17T20:18:45.449Z,71.86
2023-02-17T20:21:17.897Z,71.93
2023-02-17T20:23:45.668Z,72.24
2023-02-17T20:26:18.302Z,72.11
2023-02-17T20:28:46.276Z,72.81
2023-02-17T20:31:15.819Z,73.49
2023-02-17T20:33:43.403Z,73.03
2023-02-17T20:36:11.818Z,73.67
2023-02-17T20:38:41.267Z,73.50
2023-02-17T20:41:10.596Z,73.16
2023-02-17T20:43:38.928Z,73.75
2023-02-17T20:46:09.328Z,73.63
2023-02-17T20:48:36.917Z,72.87
2023-02-17T20:51:05.766Z,73.67
2023-02-17T20:53:33.620Z,73.52
2023-02-17T20:56:02.763Z,73.59
2023-02-17T20:58:32.798Z,72.85
2023-02-17T21:01:00.276Z,73.94
2023-02-17T21:03:27.714Z,72.78
2023-02-17T21:05:55.191Z,72.90
2023-02-17T21:08:22.811Z,72.62
2023-02-17T21:10:52.982Z,73.40
2023-02-17T21:13:22.761Z,73.22
2023-02-17T21:15:50.396Z,73.24
2023-02-17T21:18:18.006Z,73.08
2023-02-17T21:20:45.475Z,73.17
2023-02-17T21:23:12.942Z,81.60
2023-02-17T21:25:43.157Z,80.97
2023-02-17T21:28:10.638Z,74.11
2023-02-17T21:30:39.443Z,71.80
2023-02-17T21:33:06.925Z,68.36
2023-02-17T21:35:34.379Z,68.29
2023-02-17T21:38:01.919Z,67.72
2023-02-17T21:40:29.485Z,66.30
2023-02-17T21:43:14.561Z,64.12
2023-02-17T21:45:44.754Z,68.79
2023-02-17T21:48:12.814Z,71.14
2023-02-17T21:50:40.562Z,71.97
2023-02-17T21:53:07.971Z,72.79
2023-02-17T21:55:35.395Z,73.53
2023-02-17T21:58:02.833Z,73.42
2023-02-17T22:00:30.315Z,72.77
2023-02-17T22:02:59.285Z,73.58
2023-02-17T22:05:30.911Z,73.72
2023-02-17T22:07:58.303Z,73.07
2023-02-17T22:10:25.790Z,73.77
2023-02-17T22:12:53.248Z,73.86
2023-02-17T22:15:20.806Z,74.16
2023-02-17T22:17:48.355Z,74.59
2023-02-17T22:20:17.499Z,74.22
2023-02-17T22:22:45.320Z,74.70
2023-02-17T22:25:15.206Z,73.75
2023-02-17T22:27:42.701Z,74.50
2023-02-17T22:30:10.922Z,73.98
2023-02-17T22:32:40.329Z,74.39
2023-02-17T22:35:08.187Z,74.50
2023-02-17T22:37:38.935Z,74.14
2023-02-17T22:40:08.724Z,74.53
2023-02-17T22:42:39.468Z,74.24
2023-02-17T22:45:07.570Z,74.83
2023-02-17T22:47:35.010Z,74.54
2023-02-17T22:50:02.696Z,76.16
2023-02-17T22:52:30.195Z,75.58
2023-02-17T22:54:59.025Z,75.28
2023-02-17T22:57:26.642Z,76.30
2023-02-17T22:59:54.441Z,74.57
2023-02-17T23:02:21.917Z,75.65
2023-02-17T23:04:49.381Z,75.13
2023-02-17T23:07:16.868Z,74.52
2023-02-17T23:09:44.297Z,75.94
2023-02-17T23:12:13.103Z,76.18
2023-02-17T23:14:41.016Z,76.00
2023-02-17T23:17:10.752Z,75.73
2023-02-17T23:19:39.447Z,73.59
2023-02-17T23:22:10.539Z,74.75
2023-02-17T23:24:38.412Z,76.11
2023-02-17T23:27:06.004Z,77.25
2023-02-17T23:29:35.387Z,75.85
2023-02-17T23:32:02.939Z,76.31
2023-02-17T23:34:31.110Z,76.28
2023-02-17T23:36:58.569Z,76.26
2023-02-17T23:39:26.075Z,76.75
2023-02-17T23:41:53.678Z,76.81
2023-02-17T23:44:21.354Z,77.63
2023-02-17T23:46:50.120Z,77.52
2023-02-17T23:49:18.284Z,77.79
2023-02-17T23:51:47.688Z,76.43
2023-02-17T23:54:15.655Z,77.69
2023-02-17T23:56:44.211Z,77.28
2023-02-17T23:59:11.989Z,78.11
